Time;durP1;ratioP1;P1;durP2;ratioP2;P2;SDS_P1;SDS_P2;PMS_P1;PMS_P2;Temp;Humidity;BMP_temperature;BMP_pressure;BME280_temperature;BME280_humidity;BME280_pressure;Samples;Min_cycle;Max_cycle;Signal;HPM_P1;HPM_P2
2021/07/28 00:00:14;;;;;;;9.93;6.80;;;19.30;99.90;;;;;;5107347;28;20020;-83
2021/07/28 00:02:40;;;;;;;11.57;7.45;;;19.30;99.90;;;;;;5124169;28;20471;-84
2021/07/28 00:05:06;;;;;;;9.98;7.07;;;19.30;99.90;;;;;;5122311;28;20069;-83
2021/07/28 00:07:32;;;;;;;13.10;6.63;;;19.30;99.90;;;;;;5117308;28;20031;-84
2021/07/28 00:09:57;;;;;;;11.80;7.15;;;19.20;99.90;;;;;;5100631;28;20109;-84
2021/07/28 00:12:23;;;;;;;10.88;6.90;;;19.20;99.90;;;;;;5099726;28;20026;-84
2021/07/28 00:14:49;;;;;;;10.85;6.95;;;19.20;99.90;;;;;;5099108;28;20032;-84
2021/07/28 00:17:15;;;;;;;10.98;6.38;;;19.20;99.90;;;;;;5094760;28;20047;-84
2021/07/28 00:20:06;;;;;;;11.48;6.72;;;19.10;99.90;;;;;;5098573;28;20472;-83
2021/07/28 00:25:20;;;;;;;9.18;6.10;;;19.10;99.90;;;;;;5082821;28;20040;-84
2021/07/28 00:27:46;;;;;;;9.50;6.70;;;19.10;99.90;;;;;;5076491;28;20052;-84
2021/07/28 00:30:11;;;;;;;10.20;6.30;;;19.20;99.90;;;;;;5079177;28;20024;-84
2021/07/28 00:32:37;;;;;;;8.20;5.72;;;19.20;99.90;;;;;;5091107;28;20396;-84
2021/07/28 00:35:03;;;;;;;9.13;6.03;;;19.10;99.90;;;;;;5077634;28;20029;-84
2021/07/28 00:37:29;;;;;;;9.43;6.20;;;19.10;99.90;;;;;;5078335;28;20307;-83
2021/07/28 00:39:54;;;;;;;10.50;5.53;;;19.10;99.90;;;;;;5077437;28;20033;-84
2021/07/28 00:42:20;;;;;;;8.73;6.00;;;19.20;99.90;;;;;;5077837;28;20037;-84
2021/07/28 00:44:45;;;;;;;9.75;6.07;;;19.10;99.90;;;;;;5094494;28;20119;-83
2021/07/28 00:47:11;;;;;;;10.18;6.15;;;19.10;99.90;;;;;;5077920;28;20024;-84
2021/07/28 00:49:37;;;;;;;9.27;5.93;;;19.00;99.90;;;;;;5092891;28;20028;-84
2021/07/28 00:52:05;;;;;;;9.18;6.25;;;19.00;99.90;;;;;;5077865;28;20088;-83
2021/07/28 00:54:31;;;;;;;11.32;6.65;;;19.00;99.90;;;;;;5075581;28;20055;-84
2021/07/28 00:56:57;;;;;;;9.88;6.00;;;19.00;99.90;;;;;;5077918;28;20035;-83
2021/07/28 00:59:24;;;;;;;9.43;6.40;;;18.90;99.90;;;;;;5091036;28;20024;-84
2021/07/28 01:01:51;;;;;;;8.45;5.72;;;18.90;99.90;;;;;;5116914;28;20026;-84
2021/07/28 01:04:18;;;;;;;10.05;6.38;;;19.00;99.90;;;;;;5118430;28;20024;-84
2021/07/28 01:06:44;;;;;;;8.82;5.95;;;18.90;99.90;;;;;;5117313;28;20039;-82
2021/07/28 01:09:09;;;;;;;9.40;6.88;;;18.90;99.90;;;;;;5080613;28;20044;-84
2021/07/28 01:11:36;;;;;;;10.52;6.38;;;18.90;99.90;;;;;;5076529;28;20031;-84
2021/07/28 01:14:04;;;;;;;11.68;6.07;;;19.00;99.90;;;;;;5077701;28;20024;-83
2021/07/28 01:16:36;;;;;;;10.48;6.57;;;19.00;99.90;;;;;;5076800;28;20026;-83
2021/07/28 01:19:11;;;;;;;12.85;6.70;;;19.00;99.90;;;;;;5085357;28;20024;-83
2021/07/28 01:21:37;;;;;;;9.20;5.88;;;18.90;99.90;;;;;;5095270;28;20055;-83
2021/07/28 01:24:04;;;;;;;10.82;5.97;;;18.90;99.90;;;;;;5094535;28;20377;-83
2021/07/28 01:26:31;;;;;;;10.02;5.97;;;18.90;99.90;;;;;;5077448;28;20035;-83
2021/07/28 01:28:57;;;;;;;8.40;5.63;;;18.90;99.90;;;;;;5078066;28;20078;-83
2021/07/28 01:31:22;;;;;;;8.65;5.68;;;18.90;99.90;;;;;;5080183;28;20031;-83
2021/07/28 01:33:49;;;;;;;8.15;5.85;;;18.80;99.90;;;;;;5089479;28;20428;-83
2021/07/28 01:36:19;;;;;;;8.75;5.38;;;18.80;99.90;;;;;;5076998;28;20020;-83
2021/07/28 01:38:46;;;;;;;9.20;5.80;;;18.80;99.90;;;;;;5077872;28;20047;-83
2021/07/28 01:41:12;;;;;;;10.30;5.75;;;18.80;99.90;;;;;;5076427;28;20033;-84
2021/07/28 01:43:39;;;;;;;8.60;5.03;;;18.80;99.90;;;;;;5077541;28;20037;-84
2021/07/28 01:46:05;;;;;;;9.05;5.20;;;18.80;99.90;;;;;;5079338;28;20071;-84
2021/07/28 01:48:31;;;;;;;11.82;6.07;;;18.60;99.90;;;;;;5076690;28;20467;-83
2021/07/28 01:50:58;;;;;;;6.80;4.78;;;18.80;99.90;;;;;;5085295;28;20024;-84
2021/07/28 01:53:25;;;;;;;7.55;5.18;;;18.80;99.90;;;;;;5097679;28;20032;-83
2021/07/28 01:55:55;;;;;;;7.15;4.82;;;18.80;99.90;;;;;;5097514;28;20194;-83
2021/07/28 01:58:21;;;;;;;7.10;4.85;;;18.70;99.90;;;;;;5097620;28;20024;-83
2021/07/28 02:00:48;;;;;;;6.93;4.95;;;18.80;99.90;;;;;;5092934;28;20024;-83
2021/07/28 02:03:13;;;;;;;6.95;5.22;;;18.80;99.90;;;;;;5096988;28;20073;-83
2021/07/28 02:05:40;;;;;;;7.68;5.40;;;18.80;99.90;;;;;;5097098;28;20028;-84
2021/07/28 02:08:08;;;;;;;8.38;5.28;;;18.80;99.90;;;;;;5088131;28;20024;-84
2021/07/28 02:10:35;;;;;;;7.35;4.95;;;18.80;99.90;;;;;;5071505;28;20457;-83
2021/07/28 02:13:01;;;;;;;6.65;4.50;;;18.70;99.90;;;;;;5073063;28;20024;-84
2021/07/28 02:15:28;;;;;;;7.15;5.28;;;18.70;99.90;;;;;;5071370;28;20025;-83
2021/07/28 02:17:55;;;;;;;7.10;5.05;;;18.80;99.90;;;;;;5071177;28;20028;-84
2021/07/28 02:20:21;;;;;;;9.45;5.22;;;18.70;99.90;;;;;;5071879;28;20016;-84
2021/07/28 02:22:47;;;;;;;8.80;5.28;;;18.70;99.90;;;;;;5084648;28;20028;-84
2021/07/28 02:25:14;;;;;;;6.88;5.22;;;18.80;99.90;;;;;;5091730;28;20024;-84
2021/07/28 02:27:40;;;;;;;6.88;4.20;;;18.70;99.90;;;;;;5073822;28;20396;-84
2021/07/28 02:30:07;;;;;;;6.88;4.38;;;18.70;99.90;;;;;;5080338;28;20034;-84
2021/07/28 02:32:34;;;;;;;9.32;4.60;;;18.70;99.90;;;;;;5088535;28;20403;-84
2021/07/28 02:35:00;;;;;;;7.75;4.75;;;18.60;99.90;;;;;;5091477;28;20073;-84
2021/07/28 02:37:26;;;;;;;7.47;5.20;;;18.70;99.90;;;;;;5109149;28;20020;-84
2021/07/28 02:39:52;;;;;;;7.32;5.10;;;18.60;99.90;;;;;;5090620;28;20337;-84
2021/07/28 02:42:18;;;;;;;7.43;4.65;;;18.50;99.90;;;;;;5096854;28;20035;-83
2021/07/28 02:44:44;;;;;;;7.78;4.82;;;18.40;99.90;;;;;;5087083;28;20047;-84
2021/07/28 02:47:10;;;;;;;7.18;5.18;;;18.50;99.90;;;;;;5072169;28;20024;-83
2021/07/28 02:49:36;;;;;;;6.07;4.30;;;18.50;99.90;;;;;;5071632;28;20440;-83
2021/07/28 02:52:02;;;;;;;6.30;4.30;;;18.40;99.90;;;;;;5094382;28;20062;-83
2021/07/28 02:54:28;;;;;;;6.18;4.15;;;18.50;99.90;;;;;;5092528;28;20028;-84
2021/07/28 02:56:53;;;;;;;8.45;4.15;;;18.50;99.90;;;;;;5091623;28;20031;-84
2021/07/28 02:59:19;;;;;;;9.20;4.40;;;18.50;99.90;;;;;;5089464;28;20028;-83
2021/07/28 03:01:45;;;;;;;6.07;3.95;;;18.50;99.90;;;;;;5071342;28;20032;-83
2021/07/28 03:04:10;;;;;;;7.13;3.85;;;18.50;99.90;;;;;;5080158;28;20039;-84
2021/07/28 03:06:36;;;;;;;8.48;4.60;;;18.50;99.90;;;;;;5094364;28;20024;-84
2021/07/28 03:09:02;;;;;;;8.07;4.70;;;18.50;99.90;;;;;;5083395;28;20040;-83
2021/07/28 03:11:27;;;;;;;9.52;5.00;;;18.40;99.90;;;;;;5074066;28;20074;-84
2021/07/28 03:13:53;;;;;;;7.47;4.38;;;18.50;99.90;;;;;;5074898;28;20029;-83
2021/07/28 03:16:21;;;;;;;6.57;4.47;;;18.30;99.90;;;;;;5077770;28;20137;-84
2021/07/28 03:18:47;;;;;;;7.07;4.20;;;18.50;99.90;;;;;;5095714;28;20024;-84
2021/07/28 03:21:13;;;;;;;6.90;4.65;;;18.40;99.90;;;;;;5095748;28;20030;-83
2021/07/28 03:23:38;;;;;;;6.85;4.43;;;18.40;99.90;;;;;;5096552;28;20111;-84
2021/07/28 03:26:04;;;;;;;7.22;4.50;;;18.40;99.90;;;;;;5093647;28;20077;-82
2021/07/28 03:28:29;;;;;;;6.97;4.65;;;18.30;99.90;;;;;;5097013;28;20031;-83
2021/07/28 03:30:55;;;;;;;7.47;5.00;;;18.40;99.90;;;;;;5095333;28;20400;-84
2021/07/28 03:33:21;;;;;;;7.32;4.78;;;18.40;99.90;;;;;;5093267;28;20028;-84
2021/07/28 03:35:46;;;;;;;7.35;4.70;;;18.40;99.90;;;;;;5077551;28;20538;-83
2021/07/28 03:38:13;;;;;;;6.50;4.65;;;18.40;99.90;;;;;;5071085;28;20142;-84
2021/07/28 03:40:38;;;;;;;6.57;4.25;;;18.50;99.90;;;;;;5071275;28;20036;-84
2021/07/28 03:43:05;;;;;;;7.35;4.65;;;18.40;99.90;;;;;;5089857;28;20020;-83
2021/07/28 03:45:31;;;;;;;7.25;4.22;;;18.50;99.90;;;;;;5075249;28;20043;-83
2021/07/28 03:47:56;;;;;;;6.75;4.20;;;18.40;99.90;;;;;;5099242;28;20031;-84
2021/07/28 03:50:22;;;;;;;6.57;4.53;;;18.50;99.90;;;;;;5107643;28;20020;-84
2021/07/28 03:52:48;;;;;;;7.63;4.55;;;18.40;99.90;;;;;;5093823;28;20126;-84
2021/07/28 03:55:13;;;;;;;7.75;4.90;;;18.50;99.90;;;;;;5093642;28;20807;-83
2021/07/28 03:57:39;;;;;;;8.40;4.35;;;18.50;99.90;;;;;;5088670;28;20033;-84
2021/07/28 04:00:06;;;;;;;6.68;4.35;;;18.50;99.90;;;;;;5070703;28;20067;-84
2021/07/28 04:02:32;;;;;;;7.00;4.70;;;18.50;99.90;;;;;;5072296;28;20059;-83
2021/07/28 04:04:57;;;;;;;9.75;4.82;;;18.50;99.90;;;;;;5096569;28;20063;-84
2021/07/28 04:07:23;;;;;;;7.78;4.80;;;18.50;99.90;;;;;;5096027;28;20038;-83
2021/07/28 04:09:48;;;;;;;8.63;4.32;;;18.50;99.90;;;;;;5088466;28;20067;-84
2021/07/28 04:12:14;;;;;;;7.85;4.70;;;18.50;99.90;;;;;;5074685;28;20021;-84
2021/07/28 04:14:40;;;;;;;8.27;4.88;;;18.50;99.90;;;;;;5088312;28;20488;-84
2021/07/28 04:17:06;;;;;;;6.47;4.70;;;18.50;99.90;;;;;;5091327;28;20071;-84
2021/07/28 04:19:32;;;;;;;7.78;4.70;;;18.40;99.90;;;;;;5090342;28;20120;-84
2021/07/28 04:21:58;;;;;;;9.65;5.32;;;18.40;99.90;;;;;;5081551;28;20524;-84
2021/07/28 04:24:24;;;;;;;10.32;5.10;;;18.40;99.90;;;;;;5081988;28;20032;-84
2021/07/28 04:26:49;;;;;;;8.38;4.88;;;18.40;99.90;;;;;;5091971;28;20099;-84
2021/07/28 04:29:15;;;;;;;7.60;4.90;;;18.50;99.90;;;;;;5089145;28;20031;-84
2021/07/28 04:31:40;;;;;;;8.82;4.75;;;18.40;99.90;;;;;;5085714;28;20045;-84
2021/07/28 04:34:06;;;;;;;7.30;4.45;;;18.30;99.90;;;;;;5071534;28;20449;-84
2021/07/28 04:36:32;;;;;;;6.80;4.70;;;18.40;99.90;;;;;;5070300;28;20016;-84
2021/07/28 04:39:01;;;;;;;7.43;4.68;;;18.30;99.90;;;;;;5069977;28;20025;-83
2021/07/28 04:41:27;;;;;;;8.40;5.38;;;18.40;99.90;;;;;;5071175;28;20052;-84
2021/07/28 04:43:52;;;;;;;7.78;4.90;;;18.30;99.90;;;;;;5080917;28;20048;-83
2021/07/28 04:46:18;;;;;;;8.30;4.72;;;18.30;99.90;;;;;;5074768;28;20029;-83
2021/07/28 04:48:44;;;;;;;8.85;5.30;;;18.40;99.90;;;;;;5076886;28;20039;-84
2021/07/28 04:51:09;;;;;;;7.60;5.22;;;18.40;99.90;;;;;;5073571;28;20060;-84
2021/07/28 04:53:35;;;;;;;6.88;4.53;;;18.50;99.90;;;;;;5071028;28;20040;-85
2021/07/28 04:56:01;;;;;;;7.55;5.00;;;18.40;99.90;;;;;;5084604;28;20028;-84
2021/07/28 04:58:27;;;;;;;7.40;5.13;;;18.50;99.90;;;;;;5077746;28;20031;-84
2021/07/28 05:00:53;;;;;;;9.23;5.05;;;18.60;99.90;;;;;;5077793;28;20016;-84
2021/07/28 05:03:19;;;;;;;6.82;4.65;;;18.60;99.90;;;;;;5076006;28;20024;-84
2021/07/28 05:05:45;;;;;;;9.73;5.50;;;18.70;99.90;;;;;;5084085;28;20035;-85
2021/07/28 05:08:11;;;;;;;9.70;4.57;;;18.70;99.90;;;;;;5090512;28;20012;-84
2021/07/28 05:10:37;;;;;;;8.27;4.85;;;18.70;99.90;;;;;;5086017;28;20408;-84
2021/07/28 05:13:03;;;;;;;8.25;4.20;;;18.70;99.90;;;;;;5072065;28;20028;-84
2021/07/28 05:15:29;;;;;;;7.75;4.53;;;18.70;99.90;;;;;;5070726;28;20028;-84
2021/07/28 05:17:55;;;;;;;7.30;4.60;;;18.60;99.90;;;;;;5070239;28;20082;-84
2021/07/28 05:20:21;;;;;;;6.93;4.40;;;18.70;99.90;;;;;;5086198;28;20024;-84
2021/07/28 05:22:47;;;;;;;6.30;4.50;;;18.70;99.90;;;;;;5090652;28;20396;-85
2021/07/28 05:25:13;;;;;;;7.88;4.45;;;18.60;99.90;;;;;;5091016;28;20024;-84
2021/07/28 05:27:39;;;;;;;8.55;4.35;;;18.70;99.90;;;;;;5078878;28;20039;-84
2021/07/28 05:30:05;;;;;;;8.00;4.28;;;18.60;99.90;;;;;;5071786;28;20036;-83
2021/07/28 05:32:31;;;;;;;7.10;4.20;;;18.60;99.90;;;;;;5092040;28;20028;-83
2021/07/28 05:34:57;;;;;;;7.53;4.40;;;18.70;99.90;;;;;;5090406;28;20396;-83
2021/07/28 05:37:24;;;;;;;7.60;4.70;;;18.60;99.90;;;;;;5092318;28;20088;-84
2021/07/28 05:39:50;;;;;;;7.88;4.53;;;18.70;99.90;;;;;;5090293;28;20047;-84
2021/07/28 05:42:15;;;;;;;6.97;4.32;;;18.70;99.90;;;;;;5092052;28;20514;-83
2021/07/28 05:44:41;;;;;;;7.15;4.43;;;18.70;99.90;;;;;;5083127;28;20036;-83
2021/07/28 05:47:07;;;;;;;7.22;4.07;;;18.80;99.90;;;;;;5071531;28;20028;-83
2021/07/28 05:49:33;;;;;;;7.75;4.05;;;18.70;99.90;;;;;;5071442;28;20072;-83
2021/07/28 05:51:59;;;;;;;7.03;4.10;;;18.50;99.90;;;;;;5078006;28;20461;-83
2021/07/28 05:54:25;;;;;;;9.88;4.43;;;18.50;99.90;;;;;;5089405;28;20040;-84
2021/07/28 05:56:50;;;;;;;7.03;4.20;;;18.40;99.90;;;;;;5109544;28;20114;-84
2021/07/28 05:59:16;;;;;;;7.95;4.03;;;18.50;99.90;;;;;;5109796;28;20484;-84
2021/07/28 06:01:41;;;;;;;7.40;4.28;;;18.50;99.90;;;;;;5110481;28;20471;-83
2021/07/28 06:04:07;;;;;;;6.43;3.55;;;18.50;99.90;;;;;;5091329;28;20032;-83
2021/07/28 06:06:32;;;;;;;6.78;3.92;;;18.40;99.90;;;;;;5092602;28;20032;-85
2021/07/28 06:08:59;;;;;;;6.82;4.07;;;18.30;99.90;;;;;;5092231;28;20024;-84
2021/07/28 06:11:25;;;;;;;8.90;4.18;;;18.50;99.90;;;;;;5085383;28;20036;-82
2021/07/28 06:13:50;;;;;;;6.88;4.07;;;18.50;99.90;;;;;;5083633;28;20082;-82
2021/07/28 06:16:16;;;;;;;10.30;3.83;;;18.60;99.90;;;;;;5088987;28;20370;-82
2021/07/28 06:18:42;;;;;;;6.07;4.03;;;18.70;99.90;;;;;;5085162;28;20032;-82
2021/07/28 06:21:09;;;;;;;6.63;3.78;;;18.70;99.90;;;;;;5073632;28;20064;-82
2021/07/28 06:23:34;;;;;;;6.95;4.32;;;18.60;99.90;;;;;;5084767;28;20021;-82
2021/07/28 06:26:00;;;;;;;6.55;4.07;;;18.50;99.90;;;;;;5076363;28;20027;-81
2021/07/28 06:28:28;;;;;;;9.27;4.03;;;18.50;99.90;;;;;;5069212;28;20036;-81
2021/07/28 06:30:55;;;;;;;6.40;4.10;;;18.40;99.90;;;;;;5075816;28;20024;-81
2021/07/28 06:33:21;;;;;;;8.38;4.32;;;18.40;99.90;;;;;;5073865;28;20374;-81
2021/07/28 06:35:49;;;;;;;7.88;3.90;;;18.30;99.90;;;;;;5072410;28;20097;-80
2021/07/28 06:38:15;;;;;;;8.05;4.43;;;18.20;99.90;;;;;;5070461;28;20031;-82
2021/07/28 06:40:42;;;;;;;6.32;4.10;;;18.10;99.90;;;;;;5074294;28;20070;-81
2021/07/28 06:43:07;;;;;;;6.47;4.20;;;18.00;99.90;;;;;;5079828;28;20441;-81
2021/07/28 06:45:33;;;;;;;7.10;4.57;;;17.80;99.90;;;;;;5074685;28;20586;-80
2021/07/28 06:47:59;;;;;;;9.80;4.50;;;17.90;99.90;;;;;;5076926;28;20020;-81
2021/07/28 06:50:24;;;;;;;8.18;4.47;;;18.00;99.90;;;;;;5077455;28;20028;-81
2021/07/28 06:52:50;;;;;;;7.65;4.80;;;17.90;99.90;;;;;;5077195;28;20065;-82
2021/07/28 06:55:16;;;;;;;6.80;4.32;;;18.00;99.90;;;;;;5078674;28;20028;-82
2021/07/28 06:57:42;;;;;;;10.13;4.53;;;18.00;99.90;;;;;;5075296;28;20033;-83
2021/07/28 07:00:08;;;;;;;10.48;4.32;;;18.00;99.90;;;;;;5085284;28;20436;-89
2021/07/28 07:02:35;;;;;;;8.40;4.22;;;18.00;99.90;;;;;;5083719;28;20488;-89
2021/07/28 07:05:00;;;;;;;9.38;4.32;;;18.00;99.90;;;;;;5079633;28;20093;-89
2021/07/28 07:07:26;;;;;;;9.13;4.90;;;17.90;99.90;;;;;;5076964;28;20392;-89
2021/07/28 07:09:52;;;;;;;8.15;4.50;;;17.80;99.90;;;;;;5087007;28;20028;-88
2021/07/28 07:12:18;;;;;;;7.55;4.32;;;17.80;99.90;;;;;;5091581;28;20055;-88
2021/07/28 07:14:45;;;;;;;6.90;4.43;;;17.60;99.90;;;;;;5092419;28;20065;-88
2021/07/28 07:17:11;;;;;;;8.90;5.10;;;17.40;99.90;;;;;;5086572;28;20044;-86
2021/07/28 07:19:36;;;;;;;9.95;4.82;;;17.40;99.90;;;;;;5087753;28;20063;-87
2021/07/28 07:22:02;;;;;;;8.43;4.97;;;17.60;99.90;;;;;;5082276;28;20035;-86
2021/07/28 07:24:28;;;;;;;7.85;4.85;;;17.60;99.90;;;;;;5083864;28;20414;-86
2021/07/28 07:26:54;;;;;;;8.10;4.45;;;17.60;99.90;;;;;;5091130;28;20127;-86
2021/07/28 07:29:20;;;;;;;8.45;4.72;;;17.70;99.90;;;;;;5091881;28;20496;-86
2021/07/28 07:31:46;;;;;;;8.73;4.72;;;17.60;99.90;;;;;;5091796;28;20031;-85
2021/07/28 07:34:12;;;;;;;8.70;5.07;;;17.80;99.90;;;;;;5091739;28;20035;-86
2021/07/28 07:36:38;;;;;;;8.18;4.35;;;17.90;99.90;;;;;;5081928;28;20092;-86
2021/07/28 07:39:05;;;;;;;7.65;4.63;;;18.00;99.90;;;;;;5075035;28;20047;-86
2021/07/28 07:41:31;;;;;;;8.50;4.45;;;18.10;99.90;;;;;;5092241;28;20407;-87
2021/07/28 07:44:00;;;;;;;8.40;5.05;;;18.10;99.90;;;;;;5093899;28;20024;-86
2021/07/28 07:46:27;;;;;;;7.43;4.10;;;18.00;99.90;;;;;;5090103;28;20040;-87
2021/07/28 07:48:53;;;;;;;7.90;4.75;;;17.90;99.90;;;;;;5074843;28;20481;-86
2021/07/28 07:51:22;;;;;;;6.80;4.63;;;17.80;99.90;;;;;;5091126;28;20032;-88
2021/07/28 07:53:48;;;;;;;7.40;4.50;;;17.90;99.90;;;;;;5091521;28;20353;-86
2021/07/28 07:56:13;;;;;;;10.32;5.03;;;17.70;99.90;;;;;;5086407;28;20025;-85
2021/07/28 07:58:39;;;;;;;7.38;5.03;;;17.70;99.90;;;;;;5091525;28;20023;-87
2021/07/28 08:01:10;;;;;;;7.28;5.15;;;17.60;99.90;;;;;;5076943;28;20017;-85
2021/07/28 08:03:37;;;;;;;11.15;5.20;;;17.70;99.90;;;;;;5091422;28;20116;-85
2021/07/28 08:06:03;;;;;;;7.93;4.50;;;17.60;99.90;;;;;;5082312;28;20033;-86
2021/07/28 08:08:29;;;;;;;8.65;4.20;;;17.60;99.90;;;;;;5070770;28;20099;-85
2021/07/28 08:10:56;;;;;;;8.05;5.10;;;17.50;99.90;;;;;;5071331;28;20477;-89
2021/07/28 08:13:22;;;;;;;7.60;3.97;;;17.50;99.90;;;;;;5084796;28;20110;-86
2021/07/28 08:15:48;;;;;;;6.15;3.92;;;17.50;99.90;;;;;;5087628;28;20038;-86
2021/07/28 08:18:13;;;;;;;7.28;4.40;;;17.40;99.90;;;;;;5085433;28;20107;-87
2021/07/28 08:20:39;;;;;;;7.95;4.35;;;17.50;99.90;;;;;;5082332;28;20028;-85
2021/07/28 08:23:05;;;;;;;8.93;4.40;;;17.50;99.90;;;;;;5085516;28;20024;-87
2021/07/28 08:25:31;;;;;;;7.18;4.32;;;17.50;99.90;;;;;;5093530;28;20129;-87
2021/07/28 08:27:57;;;;;;;9.23;4.80;;;17.50;99.90;;;;;;5078500;28;20032;-86
2021/07/28 08:30:22;;;;;;;7.97;4.32;;;17.40;99.90;;;;;;5074378;28;20028;-87
2021/07/28 08:32:48;;;;;;;6.95;4.60;;;17.40;99.90;;;;;;5073543;28;20480;-87
2021/07/28 08:35:14;;;;;;;7.75;4.50;;;17.40;99.90;;;;;;5077564;28;20449;-86
2021/07/28 08:37:43;;;;;;;7.28;4.63;;;17.50;99.90;;;;;;5092141;28;20054;-85
2021/07/28 08:40:14;;;;;;;9.43;4.70;;;17.50;99.90;;;;;;5087689;28;20028;-85
2021/07/28 08:42:44;;;;;;;6.63;4.20;;;17.50;99.90;;;;;;5073536;28;20024;-86
2021/07/28 08:45:13;;;;;;;7.43;3.83;;;17.50;99.90;;;;;;5076627;28;20036;-86
2021/07/28 08:47:39;;;;;;;6.45;4.00;;;17.50;99.90;;;;;;5071884;28;20806;-86
2021/07/28 08:50:08;;;;;;;7.65;4.13;;;17.50;99.90;;;;;;5075001;28;20027;-86
2021/07/28 08:52:34;;;;;;;7.90;4.22;;;17.60;99.90;;;;;;5081807;28;20035;-87
2021/07/28 08:55:01;;;;;;;8.57;4.15;;;17.70;99.90;;;;;;5085190;28;20667;-87
2021/07/28 08:57:28;;;;;;;7.85;4.38;;;17.70;99.90;;;;;;5073901;28;20016;-87
2021/07/28 08:59:57;;;;;;;7.28;3.78;;;17.80;99.90;;;;;;5080058;28;20047;-87
2021/07/28 09:02:24;;;;;;;7.80;4.63;;;18.00;99.90;;;;;;5074097;28;20024;-87
2021/07/28 09:04:50;;;;;;;7.70;3.85;;;18.10;99.90;;;;;;5072519;28;20028;-88
2021/07/28 09:07:16;;;;;;;8.40;4.15;;;18.20;99.90;;;;;;5076999;28;20530;-88
2021/07/28 09:09:56;;;;;;;5.80;3.75;;;18.30;99.90;;;;;;5079618;28;20037;-87
2021/07/28 09:12:35;;;;;;;7.45;3.95;;;18.50;99.90;;;;;;5076433;28;20029;-88
2021/07/28 09:15:05;;;;;;;7.38;3.67;;;18.60;99.90;;;;;;5077017;28;20024;-88
2021/07/28 09:17:34;;;;;;;6.10;3.60;;;18.50;99.90;;;;;;5077099;28;20044;-86
2021/07/28 09:20:01;;;;;;;6.78;3.67;;;18.70;99.90;;;;;;5073314;28;20066;-86
2021/07/28 09:22:40;;;;;;;5.50;3.40;;;18.60;99.90;;;;;;5075183;28;20020;-86
2021/07/28 09:25:08;;;;;;;5.50;3.28;;;18.70;99.90;;;;;;5084123;28;20718;-87
2021/07/28 09:27:53;;;;;;;7.18;4.15;;;18.90;99.90;;;;;;5073613;28;20135;-86
2021/07/28 09:30:25;;;;;;;7.75;3.80;;;19.10;99.90;;;;;;5080346;28;20052;-85
2021/07/28 09:33:05;;;;;;;7.13;3.65;;;19.30;99.90;;;;;;5074148;28;20032;-87
2021/07/28 09:35:49;;;;;;;6.97;3.83;;;19.40;99.90;;;;;;5074178;28;20025;-87
2021/07/28 09:38:42;;;;;;;7.50;3.15;;;19.40;99.90;;;;;;5075131;28;20023;-86
2021/07/28 09:41:17;;;;;;;5.45;3.00;;;19.50;99.90;;;;;;5079868;28;20017;-87
2021/07/28 09:44:02;;;;;;;6.25;3.88;;;19.70;99.90;;;;;;5078805;28;20472;-87
2021/07/28 09:46:37;;;;;;;7.10;3.45;;;19.70;99.90;;;;;;5086104;28;20047;-87
2021/07/28 09:49:05;;;;;;;5.85;3.08;;;19.80;99.90;;;;;;5087396;28;20027;-87
2021/07/28 09:51:37;;;;;;;6.82;3.40;;;19.80;99.90;;;;;;5076921;28;20016;-87
2021/07/28 09:54:07;;;;;;;7.15;3.47;;;19.80;99.90;;;;;;5076045;28;20033;-87
2021/07/28 09:56:40;;;;;;;5.90;3.40;;;20.00;99.90;;;;;;5074042;28;20035;-87
2021/07/28 09:59:06;;;;;;;4.88;2.88;;;19.90;99.90;;;;;;5077997;28;20427;-87
2021/07/28 10:01:34;;;;;;;7.00;2.83;;;20.10;99.90;;;;;;5079349;28;20432;-89
2021/07/28 10:04:00;;;;;;;6.18;3.08;;;20.30;99.90;;;;;;5083787;28;20030;-90
2021/07/28 10:06:33;;;;;;;6.03;3.38;;;20.20;99.90;;;;;;5077384;28;20055;-89
2021/07/28 10:09:00;;;;;;;4.72;3.08;;;20.10;99.90;;;;;;5080638;28;20467;-88
2021/07/28 10:11:26;;;;;;;5.68;2.80;;;20.40;99.90;;;;;;5076853;28;20082;-90
2021/07/28 10:13:52;;;;;;;6.57;2.90;;;20.40;99.90;;;;;;5070871;28;20612;-89
2021/07/28 10:16:19;;;;;;;5.22;2.80;;;20.00;99.90;;;;;;5076782;28;20111;-88
2021/07/28 10:18:50;;;;;;;6.72;3.22;;;20.10;99.90;;;;;;5085638;28;20020;-90
2021/07/28 10:21:16;;;;;;;6.57;3.17;;;20.10;99.90;;;;;;5084275;28;20013;-87
2021/07/28 10:23:43;;;;;;;7.07;3.05;;;20.20;99.90;;;;;;5078838;28;20028;-87
2021/07/28 10:26:12;;;;;;;7.07;3.30;;;20.30;99.90;;;;;;5080648;28;20024;-87
2021/07/28 10:28:38;;;;;;;7.70;2.97;;;20.40;99.90;;;;;;5078607;28;20089;-88
2021/07/28 10:31:14;;;;;;;4.82;2.75;;;20.60;99.90;;;;;;5089919;28;20016;-88
2021/07/28 10:33:54;;;;;;;6.65;3.00;;;20.90;99.90;;;;;;5082999;28;20111;-88
2021/07/28 10:36:53;;;;;;;5.00;2.45;;;21.00;99.90;;;;;;5093631;28;20016;-88
2021/07/28 10:39:51;;;;;;;6.65;2.85;;;21.10;99.90;;;;;;5049228;28;20037;-88
2021/07/28 10:42:18;;;;;;;7.80;2.80;;;21.30;99.90;;;;;;5077367;28;20037;-87
2021/07/28 10:45:04;;;;;;;4.15;2.55;;;21.30;99.90;;;;;;5077486;28;20598;-88
2021/07/28 10:47:39;;;;;;;6.07;2.70;;;21.10;99.90;;;;;;5080627;28;20067;-88
2021/07/28 10:50:28;;;;;;;4.82;2.80;;;20.90;99.90;;;;;;5075724;28;20127;-87
2021/07/28 10:52:59;;;;;;;5.13;2.35;;;20.80;99.90;;;;;;5071882;28;20036;-87
2021/07/28 10:55:26;;;;;;;6.18;2.60;;;20.80;99.90;;;;;;5074016;28;20032;-87
2021/07/28 10:58:07;;;;;;;5.03;2.65;;;21.10;99.90;;;;;;5076586;28;20028;-86
2021/07/28 11:00:45;;;;;;;5.78;2.50;;;21.10;99.90;;;;;;5088011;28;20025;-86
2021/07/28 11:03:17;;;;;;;6.25;3.55;;;21.20;99.90;;;;;;5073467;28;20071;-85
2021/07/28 11:05:48;;;;;;;5.05;2.80;;;21.40;99.90;;;;;;5082317;28;20666;-86
2021/07/28 11:08:21;;;;;;;;;;;21.60;99.90;;;;;;5077832;28;20480;-86
2021/07/28 11:10:57;;;;;;;6.25;2.90;;;21.60;99.90;;;;;;5088170;28;20317;-88
2021/07/28 11:13:28;;;;;;;4.63;2.75;;;21.60;99.90;;;;;;5080694;28;20047;-87
2021/07/28 11:16:05;;;;;;;5.45;2.70;;;21.60;99.90;;;;;;5075800;28;20077;-88
2021/07/28 11:18:36;;;;;;;4.30;2.45;;;21.80;99.90;;;;;;5075647;28;20074;-87
2021/07/28 11:21:08;;;;;;;5.45;2.47;;;21.80;99.90;;;;;;5072498;28;20016;-85
2021/07/28 11:23:34;;;;;;;5.78;2.47;;;21.90;99.90;;;;;;5085440;28;20024;-87
2021/07/28 11:26:11;;;;;;;6.95;2.83;;;22.10;99.90;;;;;;5069474;28;20028;-85
2021/07/28 11:28:37;;;;;;;5.88;2.60;;;22.20;99.90;;;;;;5079989;28;20032;-88
2021/07/28 11:31:08;;;;;;;4.93;2.45;;;22.50;99.90;;;;;;5078062;28;20021;-86
2021/07/28 11:33:34;;;;;;;7.43;2.47;;;22.80;99.90;;;;;;5079208;28;20736;-88
2021/07/28 11:36:01;;;;;;;5.22;2.85;;;23.10;99.90;;;;;;5075524;28;20035;-88
2021/07/28 11:38:31;;;;;;;4.28;2.50;;;23.40;99.90;;;;;;5075669;28;20074;-88
2021/07/28 11:40:58;;;;;;;5.72;2.90;;;23.80;99.90;;;;;;5080618;28;20016;-88
2021/07/28 11:43:33;;;;;;;5.45;2.55;;;24.40;99.90;;;;;;5077879;28;20073;-88
2021/07/28 11:46:04;;;;;;;4.35;2.60;;;23.90;99.90;;;;;;5072770;28;20111;-88
2021/07/28 11:48:37;;;;;;;7.45;2.90;;;24.20;99.90;;;;;;5078557;28;20020;-85
2021/07/28 11:51:07;;;;;;;5.20;2.58;;;24.40;99.90;;;;;;5079238;28;20173;-90
2021/07/28 11:53:56;;;;;;;4.82;2.53;;;24.50;99.90;;;;;;5075599;28;20043;-89
2021/07/28 11:56:22;;;;;;;5.55;2.75;;;24.70;99.90;;;;;;5079431;28;20119;-87
2021/07/28 11:58:49;;;;;;;4.15;2.47;;;24.60;99.90;;;;;;5077032;28;20178;-87
2021/07/28 12:01:19;;;;;;;4.65;2.75;;;24.50;99.90;;;;;;5078125;28;20028;-86
2021/07/28 12:03:56;;;;;;;5.13;2.47;;;24.70;99.90;;;;;;5077768;28;20024;-87
2021/07/28 12:06:42;;;;;;;4.10;2.42;;;25.40;99.90;;;;;;5076244;28;20077;-86
2021/07/28 12:09:16;;;;;;;7.72;2.75;;;25.30;99.90;;;;;;5078375;28;21611;-89
2021/07/28 12:12:03;;;;;;;4.28;2.22;;;25.70;99.90;;;;;;5078148;28;20036;-89
2021/07/28 12:14:40;;;;;;;4.63;2.50;;;26.00;99.90;;;;;;5076761;28;20054;-86
2021/07/28 12:17:13;;;;;;;4.90;2.22;;;26.20;99.90;;;;;;5092153;28;20023;-87
2021/07/28 12:19:49;;;;;;;4.22;2.17;;;26.30;99.90;;;;;;5087953;28;20031;-86
2021/07/28 12:22:15;;;;;;;4.38;2.55;;;26.00;99.90;;;;;;5092638;28;20020;-87
2021/07/28 12:24:46;;;;;;;4.35;2.47;;;26.10;99.90;;;;;;5090197;28;20025;-86
2021/07/28 12:27:30;;;;;;;4.53;2.55;;;25.90;99.70;;;;;;5092890;28;20008;-92
2021/07/28 12:30:30;;;;;;;4.47;2.33;;;26.20;99.90;;;;;;5090528;28;20028;-90
2021/07/28 12:33:06;;;;;;;4.78;2.45;;;26.00;99.90;;;;;;5060450;28;20028;-89
2021/07/28 12:35:37;;;;;;;7.22;2.50;;;25.90;99.90;;;;;;5076908;28;20071;-88
2021/07/28 12:38:14;;;;;;;4.80;2.83;;;25.50;99.90;;;;;;5080212;28;20074;-88
2021/07/28 12:40:45;;;;;;;4.03;2.20;;;24.90;99.90;;;;;;5075415;28;20029;-89
2021/07/28 12:43:11;;;;;;;5.28;2.45;;;25.40;99.90;;;;;;5083803;28;20030;-87
2021/07/28 12:45:38;;;;;;;4.35;2.28;;;26.00;99.90;;;;;;5077395;28;20086;-88
2021/07/28 12:48:04;;;;;;;4.50;2.40;;;26.10;99.40;;;;;;5080934;28;20024;-88
2021/07/28 12:50:30;;;;;;;4.30;2.25;;;25.50;99.40;;;;;;5078260;28;20803;-87
2021/07/28 12:52:57;;;;;;;4.50;2.55;;;25.70;99.80;;;;;;5077255;28;20147;-90